Time;durP1;ratioP1;P1;durP2;ratioP2;P2;SDS_P1;SDS_P2;PMS_P1;PMS_P2;Temp;Humidity;BMP_temperature;BMP_pressure;BME280_temperature;BME280_humidity;BME280_pressure;Samples;Min_cycle;Max_cycle;Signal;HPM_P1;HPM_P2
2021/12/04 00:00:01;;;;;;;18.13;14.67;;;;;;;10.25;90.92;98785.06;5073624;28;20250;-69
2021/12/04 00:02:28;;;;;;;19.57;14.33;;;;;;;10.17;91.54;98777.31;5074078;28;20199;-69
2021/12/04 00:04:56;;;;;;;22.83;15.63;;;;;;;10.12;91.75;98790.38;5073754;28;20656;-69
2021/12/04 00:07:23;;;;;;;23.83;14.53;;;;;;;10.09;92.33;98790.81;5074068;28;20193;-69
2021/12/04 00:09:57;;;;;;;21.20;13.60;;;;;;;10.07;92.70;98798.16;5073744;28;20211;-69
2021/12/04 00:12:24;;;;;;;17.97;13.73;;;;;;;9.96;92.62;98804.09;5073905;28;20245;-69
2021/12/04 00:14:50;;;;;;;16.53;12.90;;;;;;;9.74;93.49;98805.38;5073472;28;20191;-69
2021/12/04 00:17:19;;;;;;;16.47;12.70;;;;;;;9.67;95.12;98816.00;5073677;28;20336;-69
2021/12/04 00:19:46;;;;;;;17.33;12.47;;;;;;;9.63;94.86;98806.00;5073722;28;20626;-69
2021/12/04 00:22:12;;;;;;;16.73;12.57;;;;;;;9.71;95.22;98795.16;5073703;28;20639;-69
2021/12/04 00:24:39;;;;;;;13.97;11.90;;;;;;;9.79;95.13;98800.25;5073600;28;20245;-69
2021/12/04 00:27:06;;;;;;;13.43;10.80;;;;;;;9.90;94.63;98807.59;5073764;28;20200;-69
2021/12/04 00:29:33;;;;;;;16.00;11.67;;;;;;;9.93;93.60;98807.97;5073812;28;20195;-69
2021/12/04 00:32:03;;;;;;;11.57;10.30;;;;;;;9.88;93.83;98809.59;5073135;28;20256;-69
2021/12/04 00:34:33;;;;;;;14.20;10.27;;;;;;;9.85;93.46;98804.75;5074268;28;20184;-69
2021/12/04 00:50:42;;;;;;;14.63;10.83;;;;;;;9.85;93.31;98815.34;5073435;28;20237;-69
2021/12/04 00:53:08;;;;;;;15.23;11.53;;;;;;;9.74;94.15;98806.19;5072704;28;20245;-68
2021/12/04 00:55:35;;;;;;;14.40;10.97;;;;;;;9.69;94.03;98799.88;5072831;28;20191;-69
2021/12/04 00:58:03;;;;;;;16.00;11.57;;;;;;;9.71;94.28;98809.25;5072677;28;20682;-69
2021/12/04 01:00:30;;;;;;;13.83;11.53;;;;;;;9.65;93.69;98814.56;5072582;28;20588;-69
2021/12/04 01:02:57;;;;;;;14.80;10.10;;;;;;;9.61;93.47;98802.75;5072588;28;20618;-69
2021/12/04 01:05:24;;;;;;;12.40;10.27;;;;;;;9.58;93.93;98813.75;5072330;28;20193;-68
2021/12/04 01:07:52;;;;;;;10.97;9.97;;;;;;;9.52;94.04;98815.41;5073258;28;20196;-69
2021/12/04 01:10:18;;;;;;;11.60;9.13;;;;;;;9.41;93.87;98804.59;5073262;28;20242;-69
2021/12/04 01:12:45;;;;;;;10.10;8.30;;;;;;;9.41;93.78;98801.97;5073268;28;20196;-68
2021/12/04 01:15:12;;;;;;;11.50;8.83;;;;;;;9.45;94.10;98803.19;5072608;28;20195;-69
2021/12/04 01:17:39;;;;;;;10.63;8.63;;;;;;;9.50;93.07;98795.41;5072103;28;20196;-68
2021/12/04 01:20:06;;;;;;;8.10;7.40;;;;;;;9.52;92.86;98801.34;5072640;28;20192;-68
2021/12/04 01:22:34;;;;;;;10.83;8.90;;;;;;;9.40;94.27;98800.34;5072582;28;20245;-68
2021/12/04 01:25:03;;;;;;;8.63;7.93;;;;;;;9.43;94.26;98779.53;5072048;28;20204;-68
2021/12/04 01:27:29;;;;;;;7.53;6.97;;;;;;;9.50;93.07;98768.91;5072193;28;20196;-68
2021/12/04 01:29:56;;;;;;;7.93;7.17;;;;;;;9.50;92.98;98779.50;5071986;28;20196;-69
2021/12/04 01:32:23;;;;;;;7.80;7.10;;;;;;;9.53;92.31;98776.47;5072441;28;20192;-69
2021/12/04 01:34:50;;;;;;;7.67;6.97;;;;;;;9.46;92.77;98765.88;5072426;28;20249;-69
2021/12/04 01:37:16;;;;;;;8.23;6.77;;;;;;;9.44;92.46;98769.75;5072354;28;20610;-68
2021/12/04 01:39:43;;;;;;;6.43;5.93;;;;;;;9.43;92.31;98773.41;5072570;28;20215;-68
2021/12/04 01:42:11;;;;;;;7.67;6.90;;;;;;;9.46;92.92;98757.91;5072584;28;20253;-68
2021/12/04 01:44:38;;;;;;;6.77;6.27;;;;;;;9.52;92.13;98761.59;5072579;28;20195;-70
2021/12/04 01:47:13;;;;;;;7.67;6.90;;;;;;;9.56;92.22;98765.44;5072581;28;20188;-68
2021/12/04 01:49:40;;;;;;;7.57;6.43;;;;;;;9.54;91.77;98764.81;5072225;28;20273;-69
2021/12/04 01:52:08;;;;;;;7.50;6.77;;;;;;;9.54;92.17;98764.81;5072237;28;20188;-69
2021/12/04 01:54:35;;;;;;;8.23;6.73;;;;;;;9.55;92.39;98758.50;5072230;28;20278;-69
2021/12/04 01:57:02;;;;;;;6.30;5.80;;;;;;;9.52;91.46;98767.69;5072298;28;20223;-69
2021/12/04 01:59:31;;;;;;;6.40;6.00;;;;;;;9.52;91.48;98764.22;5072395;28;20220;-68
2021/12/04 02:01:59;;;;;;;6.90;6.13;;;;;;;9.53;91.27;98763.19;5072073;28;20257;-69
2021/12/04 02:04:26;;;;;;;7.47;6.77;;;;;;;9.53;92.13;98768.50;5072982;28;20604;-69
2021/12/04 02:06:52;;;;;;;9.70;7.13;;;;;;;9.48;92.60;98763.81;5072109;28;20194;-69
2021/12/04 02:09:19;;;;;;;7.67;6.93;;;;;;;9.50;92.90;98761.78;5071764;28;20249;-69
2021/12/04 02:11:46;;;;;;;8.17;7.37;;;;;;;9.44;93.29;98743.25;5071762;28;20191;-69
2021/12/04 02:14:13;;;;;;;7.83;7.13;;;;;;;9.59;92.82;98751.75;5072272;28;20566;-69
2021/12/04 02:16:42;;;;;;;8.67;7.07;;;;;;;9.72;91.92;98733.97;5072012;28;20234;-68
2021/12/04 02:19:08;;;;;;;9.57;7.70;;;;;;;9.75;92.04;98738.88;5075194;28;20284;-68
2021/12/04 02:21:37;;;;;;;9.80;7.10;;;;;;;9.76;91.50;98731.75;5075726;28;20732;-68
2021/12/04 02:24:04;;;;;;;7.47;6.23;;;;;;;9.77;91.34;98731.50;5075994;28;20191;-68
2021/12/04 02:26:30;;;;;;;8.40;7.23;;;;;;;9.84;91.04;98723.53;5075839;28;20196;-69
2021/12/04 02:28:58;;;;;;;7.30;6.80;;;;;;;9.81;90.99;98721.31;5075872;28;20195;-69
2021/12/04 02:31:25;;;;;;;8.03;7.17;;;;;;;9.93;90.42;98722.28;5075513;28;20200;-69
2021/12/04 02:33:52;;;;;;;7.40;6.73;;;;;;;9.86;91.33;98721.50;5076012;28;20192;-69
2021/12/04 02:36:19;;;;;;;8.30;7.50;;;;;;;9.92;91.26;98712.69;5075383;28;20196;-69
2021/12/04 02:38:51;;;;;;;7.47;6.83;;;;;;;9.98;90.58;98710.03;5075298;28;20219;-69
2021/12/04 02:41:19;;;;;;;8.00;7.20;;;;;;;9.84;90.22;98694.34;5076181;28;20658;-69
2021/12/04 02:43:47;;;;;;;9.17;7.63;;;;;;;9.84;90.62;98694.34;5075504;28;20192;-69
2021/12/04 02:46:14;;;;;;;7.83;7.03;;;;;;;9.79;90.74;98691.53;5075432;28;20192;-69
2021/12/04 02:48:42;;;;;;;8.47;7.50;;;;;;;9.87;90.44;98688.63;5075172;28;20758;-69
2021/12/04 02:51:08;;;;;;;9.30;7.37;;;;;;;9.89;89.69;98689.25;5075957;28;20249;-69
2021/12/04 02:53:35;;;;;;;10.63;7.13;;;;;;;9.93;89.51;98691.25;5075047;28;20624;-69
2021/12/04 02:56:05;;;;;;;6.80;6.00;;;;;;;9.72;89.49;98696.06;5075265;28;20232;-68
2021/12/04 02:58:33;;;;;;;5.97;5.40;;;;;;;9.58;89.37;98713.00;5074889;28;20229;-69
2021/12/04 03:00:59;;;;;;;5.10;4.60;;;;;;;9.62;88.86;98735.44;5074876;28;20202;-69
2021/12/04 03:03:27;;;;;;;4.90;4.43;;;;;;;9.50;88.60;98737.09;5074862;28;20720;-69
2021/12/04 03:05:54;;;;;;;5.63;5.13;;;;;;;9.39;89.79;98740.41;5074835;28;20731;-69
2021/12/04 03:08:21;;;;;;;5.70;5.20;;;;;;;9.33;90.01;98726.13;5075112;28;20199;-69
2021/12/04 03:10:48;;;;;;;5.30;4.80;;;;;;;9.22;90.45;98731.22;5074753;28;20862;-69
2021/12/04 03:13:20;;;;;;;5.50;5.10;;;;;;;9.18;90.60;98732.66;5075131;28;20196;-68
2021/12/04 03:15:55;;;;;;;5.90;5.50;;;;;;;9.23;91.07;98728.38;5075851;28;20206;-69
2021/12/04 03:18:21;;;;;;;5.83;5.53;;;;;;;9.16;90.45;98730.25;5075151;28;20233;-69
2021/12/04 03:20:50;;;;;;;6.73;6.00;;;;;;;9.19;90.42;98734.31;5074590;28;20204;-68
2021/12/04 03:23:24;;;;;;;5.67;5.10;;;;;;;9.19;90.10;98750.22;5074861;28;20203;-68
2021/12/04 03:25:53;;;;;;;5.47;5.03;;;;;;;9.22;90.66;98749.78;5074794;28;20640;-68
2021/12/04 03:28:21;;;;;;;6.43;5.90;;;;;;;9.17;90.74;98758.34;5074317;28;20207;-68
2021/12/04 03:30:53;;;;;;;5.37;4.87;;;;;;;9.12;91.86;98770.59;5074418;28;20253;-69
2021/12/04 03:41:52;;;;;;;6.50;5.90;;;;;;;8.93;91.75;98751.03;5012499;28;20201;-69
2021/12/04 03:44:20;;;;;;;5.40;5.00;;;;;;;8.90;91.46;98748.78;5059539;28;20225;-69
2021/12/04 03:46:48;;;;;;;4.97;4.67;;;;;;;8.88;90.36;98753.47;5074368;28;20202;-69
2021/12/04 03:49:15;;;;;;;4.97;4.67;;;;;;;8.86;91.38;98752.84;5075234;28;20196;-69
2021/12/04 03:51:41;;;;;;;5.77;5.07;;;;;;;8.90;90.89;98750.63;5074384;28;20192;-69
2021/12/04 03:54:08;;;;;;;5.40;5.00;;;;;;;8.92;90.71;98751.22;5075160;28;20192;-68
2021/12/04 03:56:36;;;;;;;5.37;4.97;;;;;;;8.98;90.65;98747.75;5074176;28;20285;-68
2021/12/04 03:59:03;;;;;;;5.30;5.00;;;;;;;8.98;90.21;98753.03;5074166;28;20230;-68
2021/12/04 04:01:31;;;;;;;4.57;4.37;;;;;;;8.99;90.51;98755.50;5073824;28;20221;-68
2021/12/04 04:03:58;;;;;;;5.93;5.60;;;;;;;8.86;90.67;98760.00;5073784;28;20589;-68
2021/12/04 04:06:24;;;;;;;5.47;5.13;;;;;;;8.91;90.92;98758.34;5074023;28;20192;-68
2021/12/04 04:08:51;;;;;;;5.03;4.73;;;;;;;8.90;90.61;98756.72;5073632;28;20555;-68
2021/12/04 04:11:18;;;;;;;4.87;4.47;;;;;;;8.84;90.11;98756.72;5073972;28;20245;-68
2021/12/04 04:13:45;;;;;;;5.10;4.70;;;;;;;8.88;89.27;98752.66;5073927;28;20297;-68
2021/12/04 04:16:13;;;;;;;4.97;4.53;;;;;;;8.79;90.04;98751.22;5074100;28;20198;-68
2021/12/04 04:18:41;;;;;;;5.33;4.63;;;;;;;8.76;89.84;98739.22;5073915;28;20232;-69
2021/12/04 04:21:08;;;;;;;5.97;5.57;;;;;;;8.75;90.31;98747.34;5074003;28;20613;-69
2021/12/04 04:23:35;;;;;;;6.17;5.10;;;;;;;8.68;90.03;98743.88;5073738;28;20200;-68
2021/12/04 04:26:01;;;;;;;5.97;5.43;;;;;;;8.65;90.16;98746.91;5073658;28;20252;-69
2021/12/04 04:28:28;;;;;;;5.33;4.93;;;;;;;8.62;90.29;98752.63;5073873;28;20196;-69
2021/12/04 04:30:55;;;;;;;7.37;5.83;;;;;;;8.67;89.15;98750.19;5073807;28;20253;-69
2021/12/04 04:33:21;;;;;;;5.87;5.37;;;;;;;8.68;89.92;98752.63;5074009;28;20257;-69
2021/12/04 04:36:03;;;;;;;5.17;4.87;;;;;;;8.62;89.64;98763.22;5073418;28;20257;-69
2021/12/04 04:38:38;;;;;;;5.87;5.43;;;;;;;8.56;89.91;98758.72;5073020;28;20191;-69
2021/12/04 04:57:59;;;;;;;5.83;5.00;;;;;;;8.73;89.17;98766.06;5073915;28;20238;-69
2021/12/04 05:00:51;;;;;;;5.03;4.63;;;;;;;8.69;89.16;98766.66;5073154;28;20259;-69
2021/12/04 05:11:38;;;;;;;4.97;4.57;;;;;;;8.71;88.92;98772.59;5036950;28;20196;-69
2021/12/04 05:14:05;;;;;;;5.20;4.90;;;;;;;8.78;89.36;98781.38;5072909;28;20640;-69
2021/12/04 05:16:42;;;;;;;5.87;5.37;;;;;;;8.71;88.99;98764.66;5072621;28;20196;-69
2021/12/04 05:19:25;;;;;;;8.50;6.13;;;;;;;8.86;89.17;98774.03;5072222;28;20203;-69
2021/12/04 05:21:52;;;;;;;6.53;5.33;;;;;;;8.79;88.70;98770.56;5072870;28;20560;-69
2021/12/04 05:24:20;;;;;;;5.53;5.03;;;;;;;8.60;88.58;98752.84;5072236;28;20221;-69
2021/12/04 05:26:47;;;;;;;5.13;4.83;;;;;;;8.66;88.29;98777.69;5072500;28;20251;-68
2021/12/04 05:29:14;;;;;;;4.70;4.47;;;;;;;8.81;87.85;98770.34;5072131;28;20229;-69
2021/12/04 05:31:40;;;;;;;11.57;9.00;;;;;;;8.85;88.31;98790.13;5072110;28;20195;-69
2021/12/04 05:34:07;;;;;;;6.33;5.97;;;;;;;8.73;88.39;98794.38;5072063;28;20192;-69
2021/12/04 05:36:34;;;;;;;8.07;7.47;;;;;;;8.68;88.91;98794.16;5072356;28;20617;-69
2021/12/04 05:39:01;;;;;;;6.73;6.23;;;;;;;8.71;88.75;98788.47;5072273;28;20391;-69
2021/12/04 05:41:29;;;;;;;6.83;6.17;;;;;;;8.71;88.98;98788.47;5072345;28;20188;-69
2021/12/04 05:43:56;;;;;;;5.50;5.10;;;;;;;8.81;88.45;98786.25;5071943;28;20663;-69
2021/12/04 05:46:27;;;;;;;6.00;5.50;;;;;;;8.76;88.47;98797.47;5072229;28;20276;-68
2021/12/04 05:48:58;;;;;;;6.87;6.47;;;;;;;8.71;88.97;98799.06;5072232;28;20188;-68
2021/12/04 05:54:19;;;;;;;6.50;5.93;;;;;;;8.67;88.58;98798.66;5061395;28;20192;-68
2021/12/04 05:56:48;;;;;;;6.37;5.87;;;;;;;8.73;89.03;98802.31;5072041;28;20220;-68
2021/12/04 05:59:14;;;;;;;6.57;6.17;;;;;;;8.72;88.00;98798.03;5072012;28;20281;-68
2021/12/04 06:01:41;;;;;;;5.97;5.57;;;;;;;8.72;87.69;98792.75;5071723;28;20244;-69
2021/12/04 06:04:08;;;;;;;5.50;5.20;;;;;;;8.75;87.23;98789.72;5072316;28;20188;-69
2021/12/04 06:06:35;;;;;;;5.77;5.47;;;;;;;8.78;87.84;98789.31;5071696;28;20188;-68
2021/12/04 06:09:01;;;;;;;6.10;5.80;;;;;;;8.79;87.35;98791.72;5072832;28;20242;-68
2021/12/04 06:11:29;;;;;;;7.03;6.53;;;;;;;8.83;86.93;98792.16;5072028;28;20253;-68
2021/12/04 06:13:57;;;;;;;8.17;7.57;;;;;;;8.81;87.50;98802.13;5072261;28;20191;-68
2021/12/04 06:16:24;;;;;;;5.33;5.03;;;;;;;8.73;87.05;98807.63;5071907;28;20256;-69
2021/12/04 06:18:53;;;;;;;6.47;5.97;;;;;;;8.78;86.52;98803.34;5071538;28;20199;-68
2021/12/04 06:24:05;;;;;;;6.67;6.27;;;;;;;8.82;87.83;98811.72;5071949;28;20178;-69
2021/12/04 06:26:32;;;;;;;23.60;14.07;;;;;;;8.85;87.12;98813.94;5071511;28;20253;-68
2021/12/04 06:29:00;;;;;;;22.87;15.73;;;;;;;8.86;87.00;98813.75;5071516;28;20196;-68
2021/12/04 06:31:27;;;;;;;13.93;11.60;;;;;;;8.82;86.86;98819.66;5071413;28;20676;-68
2021/12/04 06:33:54;;;;;;;9.87;8.97;;;;;;;8.89;87.46;98812.53;5071362;28;20616;-68
2021/12/04 06:36:22;;;;;;;12.47;10.23;;;;;;;8.86;86.23;98820.91;5071696;28;20265;-69
2021/12/04 06:38:48;;;;;;;7.73;7.20;;;;;;;8.80;86.60;98841.06;5072375;28;20196;-69
2021/12/04 06:41:15;;;;;;;6.10;5.60;;;;;;;8.82;86.64;98851.44;5071260;28;20280;-69
2021/12/04 06:43:47;;;;;;;6.30;5.90;;;;;;;8.97;86.11;98857.34;5071647;28;20238;-69
2021/12/04 06:46:16;;;;;;;7.00;6.50;;;;;;;8.89;85.61;98862.84;5071396;28;20227;-69
2021/12/04 06:48:46;;;;;;;7.57;6.97;;;;;;;8.82;86.48;98854.09;5072475;28;20242;-68
2021/12/04 06:51:22;;;;;;;5.87;5.47;;;;;;;8.88;86.62;98861.22;5071487;28;20257;-68
2021/12/04 06:53:54;;;;;;;6.07;5.63;;;;;;;8.98;85.92;98858.97;5071915;28;20184;-68
2021/12/04 06:56:22;;;;;;;19.73;12.07;;;;;;;8.88;85.69;98861.22;5072036;28;20231;-68
2021/12/04 06:58:50;;;;;;;9.33;8.43;;;;;;;8.82;87.03;98870.78;5071449;28;20261;-69
2021/12/04 07:01:18;;;;;;;7.40;6.50;;;;;;;8.83;87.52;98868.97;5071095;28;20224;-68
2021/12/04 07:03:45;;;;;;;6.17;5.77;;;;;;;8.84;88.28;98873.22;5075655;28;20621;-69
2021/12/04 07:06:12;;;;;;;5.93;5.57;;;;;;;8.95;87.63;98875.31;5090960;28;20184;-67
2021/12/04 07:08:38;;;;;;;6.80;6.40;;;;;;;8.88;88.08;98879.75;5074857;28;20250;-67
2021/12/04 07:11:06;;;;;;;7.50;6.97;;;;;;;8.85;87.65;98885.44;5083938;28;20217;-68
2021/12/04 07:13:33;;;;;;;6.67;5.97;;;;;;;8.73;87.29;98887.03;5095135;28;20191;-68
2021/12/04 07:16:03;;;;;;;5.63;5.23;;;;;;;8.75;86.58;98898.25;5095145;28;20318;-68
2021/12/04 07:18:32;;;;;;;5.47;5.17;;;;;;;8.73;86.50;98892.34;5095291;28;20183;-69
2021/12/04 07:21:00;;;;;;;6.03;5.63;;;;;;;8.68;86.61;98900.06;5074531;28;20219;-68
2021/12/04 07:23:27;;;;;;;5.70;5.30;;;;;;;8.73;86.73;98905.56;5074202;28;20659;-68
2021/12/04 07:25:54;;;;;;;5.87;5.57;;;;;;;8.54;87.44;98901.03;5074341;28;20578;-68
2021/12/04 07:28:21;;;;;;;5.43;5.13;;;;;;;8.64;87.01;98901.47;5074600;28;20195;-77
2021/12/04 07:30:47;;;;;;;4.90;4.70;;;;;;;8.54;88.53;98893.88;5079910;28;20255;-74
2021/12/04 07:33:14;;;;;;;6.57;6.17;;;;;;;8.64;88.59;98897.00;5094353;28;20195;-69
2021/12/04 07:35:42;;;;;;;7.97;7.23;;;;;;;8.63;88.48;98891.91;5093426;28;20554;-69
2021/12/04 07:38:10;;;;;;;7.23;6.67;;;;;;;8.51;88.69;98898.78;5074025;28;20666;-69
2021/12/04 07:40:37;;;;;;;5.13;4.73;;;;;;;8.51;89.48;98914.66;5074326;28;20220;-70
2021/12/04 07:43:04;;;;;;;6.90;6.50;;;;;;;8.47;88.66;98898.38;5069659;28;20286;-69
2021/12/04 07:45:31;;;;;;;10.07;8.57;;;;;;;8.51;89.04;98898.78;5073773;28;20195;-68
2021/12/04 07:47:58;;;;;;;9.70;8.80;;;;;;;8.60;88.67;98898.41;5071160;28;20226;-69
2021/12/04 07:50:25;;;;;;;6.37;5.97;;;;;;;8.50;88.78;98897.16;5073550;28;20196;-71
2021/12/04 07:52:53;;;;;;;6.47;5.97;;;;;;;8.44;89.70;98903.22;5073275;28;20195;-72
2021/12/04 07:55:20;;;;;;;7.27;6.67;;;;;;;8.37;89.45;98908.47;5055890;28;20580;-68
2021/12/04 07:57:46;;;;;;;6.63;6.13;;;;;;;8.47;89.44;98910.75;5053455;28;20216;-69
2021/12/04 08:00:16;;;;;;;6.93;6.37;;;;;;;8.48;90.53;98915.03;5053573;28;20250;-69
2021/12/04 08:02:44;;;;;;;7.27;6.67;;;;;;;8.50;89.61;98913.03;5053617;28;20200;-69
2021/12/04 08:05:11;;;;;;;7.60;7.00;;;;;;;8.56;90.11;98918.34;5053608;28;20661;-68
2021/12/04 08:07:39;;;;;;;7.80;7.20;;;;;;;8.52;89.36;98916.28;5053359;28;20197;-69
2021/12/04 08:10:10;;;;;;;8.00;7.20;;;;;;;8.72;89.76;98933.06;5060163;28;20219;-68
2021/12/04 08:12:37;;;;;;;20.30;6.80;;;;;;;8.76;88.70;98923.72;5093512;28;20540;-69
2021/12/04 08:15:04;;;;;;;8.07;7.10;;;;;;;8.87;88.90;98931.88;5093684;28;20191;-69
2021/12/04 08:17:31;;;;;;;8.17;7.40;;;;;;;9.00;88.03;98931.13;5093833;28;20624;-72
2021/12/04 08:19:58;;;;;;;9.80;7.10;;;;;;;9.12;88.30;98935.66;5093681;28;20230;-70
2021/12/04 08:22:25;;;;;;;19.20;10.10;;;;;;;9.20;86.99;98942.59;5093342;28;20575;-71
2021/12/04 08:24:51;;;;;;;8.87;7.60;;;;;;;9.25;86.98;98941.00;5093357;28;20575;-69
2021/12/04 08:27:20;;;;;;;8.80;7.43;;;;;;;9.33;86.50;98945.28;5093582;28;20256;-69
2021/12/04 08:29:46;;;;;;;9.83;7.20;;;;;;;9.40;85.61;98938.94;5092699;28;20198;-69
2021/12/04 08:32:13;;;;;;;9.70;6.70;;;;;;;9.32;84.82;98943.66;5092967;28;20199;-69
2021/12/04 08:34:40;;;;;;;7.73;7.00;;;;;;;9.29;85.13;98934.25;5093025;28;20267;-69
2021/12/04 08:37:07;;;;;;;7.40;6.50;;;;;;;9.33;84.77;98929.38;5093107;28;20187;-69
2021/12/04 08:39:34;;;;;;;9.00;7.50;;;;;;;9.15;85.08;98934.44;5093338;28;20195;-68
2021/12/04 08:42:01;;;;;;;8.07;7.47;;;;;;;9.20;84.62;98919.53;5064501;28;20231;-70
2021/12/04 08:44:30;;;;;;;7.20;6.53;;;;;;;9.29;85.04;98914.88;5057003;28;20660;-69
2021/12/04 08:49:25;;;;;;;5.50;5.07;;;;;;;9.64;85.78;98929.63;5030428;28;20205;-68
2021/12/04 08:51:52;;;;;;;6.00;5.50;;;;;;;9.73;83.83;98923.09;5031253;28;20200;-70
2021/12/04 08:54:19;;;;;;;6.93;6.33;;;;;;;9.89;85.15;98922.66;5032626;28;20197;-70
2021/12/04 08:56:46;;;;;;;5.97;5.47;;;;;;;9.97;83.65;98922.47;5032357;28;20193;-69
2021/12/04 08:59:13;;;;;;;6.53;5.97;;;;;;;10.02;83.37;98925.31;5032820;28;20254;-68
2021/12/04 09:01:44;;;;;;;7.40;6.80;;;;;;;10.14;83.28;98911.22;5031135;28;20229;-71
2021/12/04 09:04:16;;;;;;;8.83;7.07;;;;;;;10.33;83.75;98904.22;5031861;28;20567;-71
2021/12/04 09:06:43;;;;;;;6.47;5.80;;;;;;;10.41;80.88;98911.97;5032422;28;20770;-71
2021/12/04 09:09:12;;;;;;;11.50;8.70;;;;;;;10.39;80.76;98924.66;5032534;28;20193;-70
2021/12/04 09:11:43;;;;;;;21.67;16.83;;;;;;;10.55;81.68;98914.38;5032060;28;20339;-72
2021/12/04 09:14:10;;;;;;;16.03;14.30;;;;;;;10.59;79.85;98925.41;5030226;28;20201;-70
2021/12/04 09:16:38;;;;;;;9.30;8.40;;;;;;;10.59;81.02;98914.78;5032650;28;20193;-69
2021/12/04 09:19:06;;;;;;;7.40;6.80;;;;;;;10.35;80.69;98875.66;5032142;28;20193;-69
2021/12/04 09:21:35;;;;;;;10.93;9.77;;;;;;;10.58;80.20;98915.81;5031997;28;20225;-68
2021/12/04 09:24:06;;;;;;;11.17;7.70;;;;;;;10.67;79.52;98911.88;5029139;28;20209;-68
2021/12/04 09:26:42;;;;;;;8.23;7.53;;;;;;;10.82;78.93;98901.78;5031621;28;20194;-69
2021/12/04 09:29:22;;;;;;;8.37;6.47;;;;;;;10.89;78.12;98897.28;5032826;28;20291;-69
2021/12/04 09:32:09;;;;;;;7.20;6.57;;;;;;;11.00;79.26;98901.91;5032046;28;20266;-67
2021/12/04 10:02:16;;;;;;;6.93;6.33;;;;;;;11.92;74.94;98862.97;5026030;28;20575;-72
2021/12/04 10:19:17;;;;;;;7.00;5.90;;;;;;;12.43;72.44;98846.66;5031536;28;20576;-72
2021/12/04 10:22:01;;;;;;;7.73;6.20;;;;;;;12.67;71.58;98857.22;5031860;28;20307;-72
2021/12/04 10:33:12;;;;;;;6.27;5.67;;;;;;;13.45;68.04;98864.09;5031146;28;20196;-71
2021/12/04 10:35:39;;;;;;;5.83;5.10;;;;;;;13.39;67.13;98870.34;5031734;28;20216;-70
2021/12/04 10:38:08;;;;;;;6.30;4.93;;;;;;;13.61;66.62;98868.78;5031603;28;20279;-71
2021/12/04 10:40:40;;;;;;;5.50;5.00;;;;;;;13.70;66.26;98867.38;5032816;28;20722;-70
2021/12/04 10:43:13;;;;;;;5.60;5.20;;;;;;;13.82;65.33;98875.38;5032390;28;20661;-70
2021/12/04 10:45:42;;;;;;;14.80;13.07;;;;;;;13.89;65.16;98876.88;5032527;28;20197;-71
2021/12/04 10:48:14;;;;;;;7.43;6.80;;;;;;;13.87;65.56;98870.97;5031805;28;20221;-71
2021/12/04 10:50:48;;;;;;;6.40;5.83;;;;;;;13.97;66.94;98873.06;5033410;28;20280;-72
2021/12/04 10:53:22;;;;;;;6.83;6.00;;;;;;;14.04;66.52;98873.75;5034668;28;20568;-71
2021/12/04 10:55:55;;;;;;;5.70;5.23;;;;;;;14.10;66.82;98868.28;5033326;28;20186;-71
2021/12/04 11:01:37;;;;;;;5.43;5.07;;;;;;;14.16;65.69;98880.72;5034304;28;20245;-69
2021/12/04 11:04:18;;;;;;;4.70;4.30;;;;;;;14.18;65.08;98885.84;5032156;28;20614;-68
2021/12/04 11:23:54;;;;;;;5.50;5.00;;;;;;;15.12;62.05;98873.63;5014572;28;20217;-68
2021/12/04 11:26:49;;;;;;;4.80;4.40;;;;;;;15.17;61.60;98870.22;5015598;28;20580;-68
2021/12/04 11:37:53;;;;;;;10.43;5.33;;;;;;;15.20;61.01;98864.41;5014600;28;20233;-68
2021/12/04 11:40:32;;;;;;;5.30;4.50;;;;;;;15.17;59.67;98865.72;5015040;28;20281;-67
2021/12/04 11:43:03;;;;;;;12.50;8.93;;;;;;;15.13;64.23;98853.88;5014402;28;20568;-67
2021/12/04 11:45:44;;;;;;;12.00;9.53;;;;;;;15.02;67.19;98852.03;5014439;28;20248;-68
2021/12/04 11:48:11;;;;;;;9.13;8.43;;;;;;;15.07;66.63;98854.00;5014255;28;20299;-68
2021/12/04 11:50:40;;;;;;;11.33;8.23;;;;;;;15.08;65.87;98850.28;5014175;28;20283;-68
2021/12/04 11:53:12;;;;;;;12.60;8.50;;;;;;;15.02;67.47;98857.41;5014415;28;20272;-68
2021/12/04 11:55:44;;;;;;;11.57;10.57;;;;;;;15.06;67.17;98853.19;5014302;28;20195;-68
2021/12/04 11:58:22;;;;;;;9.67;8.67;;;;;;;15.12;67.25;98854.88;5014436;28;20186;-68
2021/12/04 12:00:52;;;;;;;9.97;9.17;;;;;;;15.11;68.23;98855.94;5014582;28;20206;-68
2021/12/04 12:03:22;;;;;;;10.13;9.23;;;;;;;15.04;67.52;98854.47;5014436;28;20248;-68
2021/12/04 12:05:51;;;;;;;11.87;9.07;;;;;;;14.87;66.78;98853.63;5014331;28;20190;-68
2021/12/04 12:08:27;;;;;;;11.43;10.33;;;;;;;14.22;69.48;98850.41;5014154;28;20193;-68
2021/12/04 12:10:58;;;;;;;9.70;8.90;;;;;;;14.25;69.99;98851.84;5024081;28;20270;-68
2021/12/04 12:13:32;;;;;;;9.80;8.90;;;;;;;14.38;69.61;98849.69;5033530;28;20629;-68
2021/12/04 12:16:08;;;;;;;10.03;9.00;;;;;;;14.51;69.32;98846.78;5033601;28;20201;-68
2021/12/04 12:18:49;;;;;;;10.20;9.30;;;;;;;14.27;70.50;98845.22;5033779;28;20200;-69
2021/12/04 12:21:19;;;;;;;10.60;9.50;;;;;;;14.41;70.01;98843.88;5033976;28;20209;-68
2021/12/04 12:26:57;;;;;;;10.20;9.40;;;;;;;14.47;68.69;98842.97;5033606;28;20197;-68
2021/12/04 12:32:45;;;;;;;10.57;9.43;;;;;;;14.74;66.79;98854.72;5033382;28;20184;-69
2021/12/04 12:38:05;;;;;;;10.33;9.27;;;;;;;14.87;66.33;98849.09;5033130;28;20189;-68
2021/12/04 12:40:31;;;;;;;11.27;8.73;;;;;;;14.67;66.43;98859.38;5033188;28;20197;-67
2021/12/04 12:43:14;;;;;;;11.47;10.30;;;;;;;14.74;67.08;98849.38;5033196;28;20269;-68
2021/12/04 12:45:41;;;;;;;16.00;9.67;;;;;;;14.78;67.10;98844.34;5033088;28;20181;-67
2021/12/04 12:48:10;;;;;;;16.60;10.70;;;;;;;14.80;67.71;98843.09;5032778;28;20287;-67
2021/12/04 12:50:40;;;;;;;17.70;10.43;;;;;;;14.63;68.32;98842.19;5033472;28;20197;-67
2021/12/04 12:53:09;;;;;;;11.57;10.47;;;;;;;14.64;68.22;98849.19;5033001;28;20197;-68
2021/12/04 12:55:38;;;;;;;13.03;10.87;;;;;;;14.70;68.08;98856.25;5031975;28;20669;-69
2021/12/04 12:58:17;;;;;;;11.83;10.20;;;;;;;14.66;67.90;98863.09;5029018;28;20251;-71
2021/12/04 13:11:56;;;;;;;10.93;9.90;;;;;;;14.39;68.19;98872.72;5031905;28;20251;-68
2021/12/04 13:14:27;;;;;;;10.87;9.90;;;;;;;14.28;69.45;98880.72;5032119;28;20198;-70
2021/12/04 13:17:01;;;;;;;11.23;10.13;;;;;;;14.28;69.08;98870.88;5031482;28;20223;-69
2021/12/04 13:19:31;;;;;;;10.13;9.13;;;;;;;14.33;68.93;98873.66;5032275;28;20195;-70
2021/12/04 13:22:00;;;;;;;10.33;9.43;;;;;;;14.31;68.54;98872.25;5033026;28;20217;-69
2021/12/04 13:24:30;;;;;;;13.07;9.97;;;;;;;14.18;69.32;98869.81;5031427;28;20284;-71
2021/12/04 13:29:38;;;;;;;13.10;11.90;;;;;;;13.52;72.10;98875.47;5031567;28;20247;-68
2021/12/04 13:32:05;;;;;;;12.93;11.63;;;;;;;13.32;73.50;98864.28;5030721;28;20193;-67
2021/12/04 13:34:35;;;;;;;15.60;12.33;;;;;;;13.27;73.65;98861.50;5032288;28;20255;-67
2021/12/04 13:37:02;;;;;;;12.53;11.33;;;;;;;13.22;74.49;98861.38;5031461;28;20193;-66
2021/12/04 13:39:29;;;;;;;12.93;11.67;;;;;;;13.23;74.75;98863.00;5030859;28;20225;-69
2021/12/04 13:41:57;;;;;;;16.77;13.17;;;;;;;13.28;75.59;98868.44;5030004;28;20640;-68
2021/12/04 13:44:26;;;;;;;16.73;13.70;;;;;;;13.25;75.57;98868.94;5030737;28;20251;-67
2021/12/04 13:46:56;;;;;;;15.47;12.53;;;;;;;13.19;75.57;98877.81;5030786;28;20582;-67
2021/12/04 13:49:31;;;;;;;16.03;12.30;;;;;;;13.22;75.35;98881.88;5032172;28;20702;-68
2021/12/04 13:52:02;;;;;;;14.53;12.80;;;;;;;13.14;75.42;98879.53;5030792;28;20212;-68
2021/12/04 13:54:32;;;;;;;14.57;13.23;;;;;;;13.14;75.35;98885.69;5031553;28;20188;-68
2021/12/04 13:56:59;;;;;;;16.23;14.53;;;;;;;13.10;75.83;98884.53;5031080;28;20196;-67
2021/12/04 13:59:27;;;;;;;17.80;12.93;;;;;;;13.01;75.48;98887.72;5030424;28;20200;-67
2021/12/04 14:01:55;;;;;;;15.07;13.47;;;;;;;12.85;76.18;98888.31;5031753;28;20282;-67
2021/12/04 14:04:22;;;;;;;15.83;14.00;;;;;;;12.86;76.15;98898.75;5030778;28;20203;-67
2021/12/04 14:06:54;;;;;;;13.90;12.50;;;;;;;12.73;76.46;98900.78;5031071;28;20552;-66
2021/12/04 14:09:24;;;;;;;15.47;13.23;;;;;;;12.67;76.71;98901.69;5031934;28;20247;-66
2021/12/04 14:11:53;;;;;;;17.70;15.17;;;;;;;12.70;76.89;98904.69;5013240;28;20224;-68
2021/12/04 14:14:21;;;;;;;15.80;13.67;;;;;;;12.58;77.79;98906.50;5013135;28;20221;-68
2021/12/04 14:16:51;;;;;;;14.70;13.23;;;;;;;12.59;78.39;98902.81;5015072;28;20243;-68
2021/12/04 14:19:22;;;;;;;15.57;13.13;;;;;;;12.61;78.62;98902.56;5015243;28;20637;-69